2021-10-22 09:25:45 Find the results of "

kaxs

" for you

AirNav: KAXS - Altus/Quartz Mountain Regional Airport

kaxs : 190855z auto 12008kt 10sm clr 13/08 a2996 rmk ao2 t01300081 klts 4nm se : 190856z auto 13007kt 10sm clr 12/08 a2992 rmk ao2 slp123 t01210076 57008 taf; klts

Kaxs Proxtec - kappahl.com

Customer Service Contact Us Privacy policy Cookies consent settings About Kappahl About us Work with us Sustainability Investors Press Fashion Club Fashion Club (in ...

Kaxs | Star Wars Fanon | Fandom

Kaxs was born on En'rg-ch 13. His father was a bounty hunter, and raised Kaxs to become the same. However, when his father was killed by a Jedi Master, Kaxs decided to go to En'rg-ch and try to find out more of his ancestor, Kaxs the First. On En'rg-ch, he found a Sith Holocron made by Kaxs the First, and it taught Kaxs everything he needed to know about the Force to survive. Later, Darth ...

AWC - METeorological Aerodrome Reports (METARs)

KAXS 282055Z AUTO 22007KT 10SM SCT100 SCT120 34/11 A2977 RMK AO2 LTG DSNT W AND NW T03410105. KAXS 282035Z AUTO 15006KT 10SM SCT110 34/10 A2979 RMK AO2 T03390097. KAXS 282015Z AUTO 20003KT 10SM CLR 35/10 A2980 RMK AO2 T03480098. KAXS 281955Z AUTO 19003KT 10SM CLR 34/09 A2981 RMK AO2 LTG DSNT W T03390093.

Kawasaki - Lawn Mower Engines - Small Engines

Kawasaki Engines designs and builds top-of-the-line commercial and residential lawn mower engines - from walk behinds to zero turns and other turf and construction equipment. Our nationwide network of Kawasaki Authorized Dealers are on-hand to provide expert information, engine service, and sales of Kawasaki powered equipment and Genuine Parts ...

Kaxs Customs - Home | Facebook

Kaxs Customs, Pico Rivera, CA. 274 likes · 1 talking about this · 9 were here. At kaxs custom we specialize in custom airbrush murals, lettering, graffitti art, body art & props.We custom make...

CO2 Engine Emission Data | Kawasaki Engines

Updated 18th February 2021. In regards to Regulation (EU) 2016/1628 Article 43, please inform the following CO2 values to the end-user. "In accordance to Regulation (EU) 2016/1628 and Regulation (EU) 2017/654, we provide below the value of carbon dioxide emissions for our engine which was determined during the EU Type-Approval Process."

Engines | Kawasaki Engines

Engines. For professional walk-behind mowers, offering heavy-duty durability and outstanding commercial performance. A high quality power solution for residential ride-on mowers, offering smooth, quiet, low-vibration running. For long-term performance and reliability, providing professionals with steadfast power they can trust.

Start - KappAhl

FASHIONABLE AND AFFORDABLE FASHION FOR THE WHOLE FAMILY. At the moment we deliver to Sweden, Norway, Denmark (via the Swedish site), Finland and Poland. Woman Man Kids.

AXS Altus/Quartz Mtn Rgnl Airport (AXS/KAXS) - FlightAware

kaxs 180855z auto 12004kt 10sm clr 09/04 a3014 rmk ao2 t00850043 2021/10/18 06:22 kcsm 180520z 1806/1906 18013kt p6sm sct250 fm181500 18019g27kt p6sm sct250 x